Time;durP1;ratioP1;P1;durP2;ratioP2;P2;SDS_P1;SDS_P2;PMS_P1;PMS_P2;Temp;Humidity;BMP_temperature;BMP_pressure;BME280_temperature;BME280_humidity;BME280_pressure;Samples;Min_cycle;Max_cycle;Signal;HPM_P1;HPM_P2
2023/01/17 00:02:00;;;;;;;5.77;3.20;;;;;;;;;;5009619;28;20331;-59
2023/01/17 00:09:58;;;;;;;2.97;2.57;;;;;;;;;;5012466;28;20223;-59
2023/01/17 00:12:27;;;;;;;4.60;2.90;;;;;;;;;;5010197;28;20215;-59
2023/01/17 00:14:58;;;;;;;5.23;3.20;;;;;;;;;;5007470;28;20514;-59
2023/01/17 00:17:26;;;;;;;8.40;3.30;;;;;;;;;;5011315;28;20225;-59
2023/01/17 01:35:18;;;;;;;5.23;4.07;;;;;;;;;;5008875;28;20208;-59
2023/01/17 01:37:45;;;;;;;5.70;4.17;;;;;;;;;;5011030;28;20228;-59
2023/01/17 01:40:13;;;;;;;6.47;3.97;;;;;;;;;;5010262;28;20228;-59
2023/01/17 01:42:48;;;;;;;6.57;4.70;;;;;;;;;;5009926;28;20216;-59
2023/01/17 01:45:17;;;;;;;6.77;4.50;;;;;;;;;;5012433;28;20212;-58
2023/01/17 01:47:44;;;;;;;7.27;4.07;;;;;;;;;;5008577;28;20200;-59
2023/01/17 01:50:12;;;;;;;7.27;4.40;;;;;;;;;;5013441;28;20209;-59
2023/01/17 01:52:42;;;;;;;4.43;4.03;;;;;;;;;;5012910;28;20205;-59
2023/01/17 01:55:12;;;;;;;7.20;4.00;;;;;;;;;;5012463;28;20219;-59
2023/01/17 01:57:40;;;;;;;4.43;3.80;;;;;;;;;;5012815;28;20287;-59
2023/01/17 02:00:10;;;;;;;6.40;3.57;;;;;;;;;;5011803;28;20205;-56
2023/01/17 02:02:38;;;;;;;4.60;3.73;;;;;;;;;;5011719;28;20295;-59
2023/01/17 02:05:05;;;;;;;7.27;4.03;;;;;;;;;;5011342;28;20212;-59
2023/01/17 02:07:34;;;;;;;5.77;3.97;;;;;;;;;;5012829;28;20208;-59
2023/01/17 02:10:03;;;;;;;5.90;3.90;;;;;;;;;;5012414;28;20201;-60
2023/01/17 02:12:30;;;;;;;8.87;4.17;;;;;;;;;;5009826;28;20219;-59
2023/01/17 02:14:57;;;;;;;6.03;4.00;;;;;;;;;;5011624;28;20201;-59
2023/01/17 02:17:30;;;;;;;6.37;4.17;;;;;;;;;;5012937;28;20236;-60
2023/01/17 02:20:16;;;;;;;5.80;4.10;;;;;;;;;;5012180;28;20213;-58
2023/01/17 02:22:51;;;;;;;7.80;4.83;;;;;;;;;;5012939;28;20205;-57
2023/01/17 02:25:27;;;;;;;7.23;4.80;;;;;;;;;;5008590;28;20205;-59
2023/01/17 02:28:02;;;;;;;6.40;4.47;;;;;;;;;;5009511;28;20227;-59
2023/01/17 02:30:36;;;;;;;6.53;4.53;;;;;;;;;;5010509;28;20270;-59
2023/01/17 02:33:10;;;;;;;7.23;4.30;;;;;;;;;;5009797;28;20207;-59
2023/01/17 02:35:43;;;;;;;5.53;4.67;;;;;;;;;;5012393;28;20212;-59
2023/01/17 02:38:15;;;;;;;6.17;4.70;;;;;;;;;;5010353;28;20236;-59
2023/01/17 02:40:45;;;;;;;7.13;4.20;;;;;;;;;;5011591;28;20197;-59
2023/01/17 02:43:14;;;;;;;6.70;4.60;;;;;;;;;;5011863;28;20212;-58
2023/01/17 02:45:44;;;;;;;5.63;4.57;;;;;;;;;;5003654;28;20201;-59
2023/01/17 02:48:12;;;;;;;5.23;4.30;;;;;;;;;;5011842;28;20205;-59
2023/01/17 02:50:47;;;;;;;4.90;3.83;;;;;;;;;;5009505;28;20201;-59
2023/01/17 02:53:23;;;;;;;6.47;4.37;;;;;;;;;;5008538;28;20213;-59
2023/01/17 02:55:54;;;;;;;5.67;3.67;;;;;;;;;;5010996;28;20212;-57
2023/01/17 02:58:33;;;;;;;7.13;4.20;;;;;;;;;;5010851;28;20216;-59
2023/01/17 03:01:05;;;;;;;5.43;4.10;;;;;;;;;;5010478;28;20197;-60
2023/01/17 03:03:35;;;;;;;5.30;3.93;;;;;;;;;;5005523;28;20200;-60
2023/01/17 03:06:10;;;;;;;5.30;4.40;;;;;;;;;;5008080;28;20213;-60
2023/01/17 03:08:38;;;;;;;5.83;4.20;;;;;;;;;;5007906;28;20256;-60
2023/01/17 03:11:07;;;;;;;5.03;4.07;;;;;;;;;;5011288;28;20207;-59
2023/01/17 03:13:34;;;;;;;6.23;4.60;;;;;;;;;;5010962;28;20204;-60
2023/01/17 03:16:03;;;;;;;5.80;4.20;;;;;;;;;;5011644;28;20197;-60
2023/01/17 03:18:30;;;;;;;5.97;3.77;;;;;;;;;;5009786;28;20205;-59
2023/01/17 03:20:57;;;;;;;3.93;3.63;;;;;;;;;;5007869;28;20220;-60
2023/01/17 03:23:24;;;;;;;5.70;3.63;;;;;;;;;;5008696;28;20201;-60
2023/01/17 03:25:52;;;;;;;5.07;4.00;;;;;;;;;;5010634;28;20212;-60
2023/01/17 03:28:19;;;;;;;4.80;3.40;;;;;;;;;;5008654;28;20237;-60
2023/01/17 03:30:46;;;;;;;4.53;3.10;;;;;;;;;;5010069;28;20201;-60
2023/01/17 03:33:16;;;;;;;4.50;3.70;;;;;;;;;;5009751;28;20232;-60
2023/01/17 03:35:45;;;;;;;3.80;3.30;;;;;;;;;;5010681;28;20205;-60
2023/01/17 03:38:12;;;;;;;4.33;3.43;;;;;;;;;;5011463;28;20229;-60
2023/01/17 03:40:39;;;;;;;3.33;3.03;;;;;;;;;;5011297;28;20213;-59
2023/01/17 03:43:06;;;;;;;5.23;3.30;;;;;;;;;;5011172;28;20213;-59
2023/01/17 03:45:34;;;;;;;4.30;3.40;;;;;;;;;;5011273;28;20283;-59
2023/01/17 03:48:01;;;;;;;3.93;3.37;;;;;;;;;;5006762;28;20200;-61
2023/01/17 03:50:29;;;;;;;3.27;2.97;;;;;;;;;;5009837;28;20211;-59
2023/01/17 03:52:56;;;;;;;3.90;3.10;;;;;;;;;;5011565;28;20221;-60
2023/01/17 03:55:23;;;;;;;4.43;2.83;;;;;;;;;;5006662;28;20204;-62
2023/01/17 03:57:51;;;;;;;2.67;2.47;;;;;;;;;;5004783;28;20225;-60
2023/01/17 04:00:19;;;;;;;3.60;2.53;;;;;;;;;;5005057;28;20251;-59
2023/01/17 04:02:46;;;;;;;2.57;1.90;;;;;;;;;;5005627;28;20209;-60
2023/01/17 04:05:13;;;;;;;3.13;2.57;;;;;;;;;;5011729;28;20212;-60
2023/01/17 04:07:42;;;;;;;4.00;2.77;;;;;;;;;;5004177;28;20196;-60
2023/01/17 04:10:09;;;;;;;3.77;3.00;;;;;;;;;;5010635;28;20340;-60
2023/01/17 04:12:37;;;;;;;3.80;3.27;;;;;;;;;;5011332;28;20216;-60
2023/01/17 04:15:04;;;;;;;4.73;3.20;;;;;;;;;;5009582;28;20208;-60
2023/01/17 04:17:31;;;;;;;4.70;3.60;;;;;;;;;;5010168;28;20232;-60
2023/01/17 04:19:58;;;;;;;4.03;3.50;;;;;;;;;;5008459;28;20208;-59
2023/01/17 04:22:25;;;;;;;4.90;3.90;;;;;;;;;;5004991;28;20216;-60
2023/01/17 04:24:56;;;;;;;5.37;3.93;;;;;;;;;;5004757;28;20201;-60
2023/01/17 04:27:23;;;;;;;4.00;3.53;;;;;;;;;;5001722;28;20233;-60
2023/01/17 04:29:50;;;;;;;6.20;4.27;;;;;;;;;;5003973;28;20205;-59
2023/01/17 04:32:17;;;;;;;5.23;4.30;;;;;;;;;;5005972;28;20204;-55
2023/01/17 04:34:45;;;;;;;4.80;4.00;;;;;;;;;;4998665;28;20200;-56
2023/01/17 04:37:12;;;;;;;4.27;3.60;;;;;;;;;;5003259;28;20235;-57
2023/01/17 04:39:39;;;;;;;5.30;3.97;;;;;;;;;;5008547;28;20200;-60
2023/01/17 04:42:08;;;;;;;4.13;3.77;;;;;;;;;;5007547;28;20201;-59
2023/01/17 04:44:35;;;;;;;4.50;4.10;;;;;;;;;;5001398;28;20208;-58
2023/01/17 04:47:02;;;;;;;4.83;4.13;;;;;;;;;;5000075;28;20208;-59
2023/01/17 04:49:29;;;;;;;5.67;3.80;;;;;;;;;;5001291;28;20208;-60
2023/01/17 04:51:56;;;;;;;5.57;4.13;;;;;;;;;;5001321;28;20209;-57
2023/01/17 04:54:23;;;;;;;4.00;3.60;;;;;;;;;;5001253;28;20209;-57
2023/01/17 04:56:50;;;;;;;4.37;3.83;;;;;;;;;;5000239;28;20209;-60
2023/01/17 04:59:19;;;;;;;9.27;8.37;;;;;;;;;;5009967;28;20431;-57
2023/01/17 05:01:48;;;;;;;7.37;5.97;;;;;;;;;;5011557;28;20204;-59
2023/01/17 05:04:15;;;;;;;5.90;5.10;;;;;;;;;;5006019;28;20201;-59
2023/01/17 05:06:44;;;;;;;5.30;4.70;;;;;;;;;;5006619;28;20201;-60
2023/01/17 05:09:11;;;;;;;5.53;4.20;;;;;;;;;;5002583;28;20201;-60
2023/01/17 05:11:38;;;;;;;5.70;4.13;;;;;;;;;;5006155;28;20208;-59
2023/01/17 05:14:05;;;;;;;4.13;3.73;;;;;;;;;;5005584;28;20205;-60
2023/01/17 05:16:34;;;;;;;4.47;3.80;;;;;;;;;;5003694;28;20208;-58
2023/01/17 05:19:01;;;;;;;4.43;3.90;;;;;;;;;;5008807;28;20236;-60
2023/01/17 05:21:29;;;;;;;4.50;3.83;;;;;;;;;;5007557;28;20236;-59
2023/01/17 05:23:56;;;;;;;4.57;3.90;;;;;;;;;;5008182;28;20209;-60
2023/01/17 05:26:23;;;;;;;5.30;4.30;;;;;;;;;;5009603;28;20205;-59
2023/01/17 05:28:51;;;;;;;6.53;4.50;;;;;;;;;;5010145;28;20219;-59
2023/01/17 05:31:18;;;;;;;5.53;4.20;;;;;;;;;;5012220;28;20213;-59
2023/01/17 05:33:46;;;;;;;4.57;3.93;;;;;;;;;;5013093;28;20205;-60
2023/01/17 05:36:13;;;;;;;4.27;3.87;;;;;;;;;;5013146;28;20239;-60
2023/01/17 05:38:40;;;;;;;6.03;4.07;;;;;;;;;;5014518;28;20224;-60
2023/01/17 05:41:07;;;;;;;5.07;3.83;;;;;;;;;;5011323;28;20213;-58
2023/01/17 05:43:34;;;;;;;5.60;4.13;;;;;;;;;;5008861;28;20205;-59
2023/01/17 05:46:02;;;;;;;7.00;4.70;;;;;;;;;;5010393;28;20209;-60
2023/01/17 05:48:29;;;;;;;7.90;4.83;;;;;;;;;;5013639;28;20211;-59
2023/01/17 05:50:57;;;;;;;6.20;4.37;;;;;;;;;;5011586;28;20201;-61
2023/01/17 05:53:24;;;;;;;5.60;4.37;;;;;;;;;;5007755;28;20204;-60
2023/01/17 05:55:51;;;;;;;5.00;4.33;;;;;;;;;;5012187;28;20213;-60
2023/01/17 05:58:20;;;;;;;4.93;4.40;;;;;;;;;;5011598;28;20259;-59
2023/01/17 06:00:47;;;;;;;6.63;5.60;;;;;;;;;;5008880;28;20207;-59
2023/01/17 06:03:15;;;;;;;7.57;4.33;;;;;;;;;;5005135;28;20205;-58
2023/01/17 06:05:43;;;;;;;6.73;4.60;;;;;;;;;;5007135;28;20204;-59
2023/01/17 06:08:12;;;;;;;5.70;4.40;;;;;;;;;;5008653;28;20208;-60
2023/01/17 06:10:39;;;;;;;5.70;4.20;;;;;;;;;;5007155;28;20201;-59
2023/01/17 06:13:07;;;;;;;4.93;4.40;;;;;;;;;;5005346;28;20220;-58
2023/01/17 06:15:35;;;;;;;5.00;4.10;;;;;;;;;;5008543;28;20214;-60
2023/01/17 06:18:06;;;;;;;6.67;4.63;;;;;;;;;;5009151;28;20223;-59
2023/01/17 06:20:33;;;;;;;5.57;4.47;;;;;;;;;;5008584;28;20193;-59
2023/01/17 06:23:03;;;;;;;5.50;4.87;;;;;;;;;;5010562;28;20205;-60
2023/01/17 06:25:31;;;;;;;7.53;6.63;;;;;;;;;;5008007;28;20217;-60
2023/01/17 06:27:58;;;;;;;7.90;7.07;;;;;;;;;;5005303;28;20236;-58
2023/01/17 06:30:25;;;;;;;7.57;6.37;;;;;;;;;;5006049;28;20212;-58
2023/01/17 06:32:53;;;;;;;7.67;5.70;;;;;;;;;;5009870;28;20205;-60
2023/01/17 06:35:21;;;;;;;5.40;4.90;;;;;;;;;;5011702;28;20335;-60
2023/01/17 06:37:50;;;;;;;7.13;5.60;;;;;;;;;;5010982;28;20213;-59
2023/01/17 06:40:18;;;;;;;6.33;5.40;;;;;;;;;;5011723;28;20444;-59
2023/01/17 06:42:46;;;;;;;6.00;4.80;;;;;;;;;;5012609;28;20205;-60
2023/01/17 06:45:13;;;;;;;5.70;5.03;;;;;;;;;;5012095;28;20204;-60
2023/01/17 06:47:41;;;;;;;7.33;5.10;;;;;;;;;;5010429;28;20212;-60
2023/01/17 06:50:09;;;;;;;8.43;5.77;;;;;;;;;;5014200;28;20224;-60
2023/01/17 06:52:36;;;;;;;8.53;5.60;;;;;;;;;;5013283;28;20220;-60
2023/01/17 06:55:03;;;;;;;7.53;5.70;;;;;;;;;;5013454;28;20213;-59
2023/01/17 06:57:30;;;;;;;6.97;5.37;;;;;;;;;;5013860;28;20201;-60
2023/01/17 06:59:59;;;;;;;7.60;5.70;;;;;;;;;;5013052;28;20220;-60
2023/01/17 07:02:26;;;;;;;7.73;5.43;;;;;;;;;;5012982;28;20216;-60
2023/01/17 07:04:53;;;;;;;11.20;6.17;;;;;;;;;;5013290;28;20212;-61
2023/01/17 07:07:20;;;;;;;8.23;6.23;;;;;;;;;;5013603;28;20216;-61
2023/01/17 07:09:47;;;;;;;9.60;6.30;;;;;;;;;;5013546;28;20212;-60
2023/01/17 07:12:15;;;;;;;9.63;6.40;;;;;;;;;;5008305;28;20212;-60
2023/01/17 07:14:42;;;;;;;8.50;6.40;;;;;;;;;;5010747;28;20204;-56
2023/01/17 07:17:10;;;;;;;7.40;6.40;;;;;;;;;;5011692;28;20219;-60
2023/01/17 07:19:37;;;;;;;9.13;6.87;;;;;;;;;;5013065;28;20229;-59
2023/01/17 07:22:04;;;;;;;20.03;14.60;;;;;;;;;;5012968;28;20211;-60
2023/01/17 07:24:35;;;;;;;31.90;20.70;;;;;;;;;;5013608;28;20220;-59
2023/01/17 07:27:02;;;;;;;33.00;21.13;;;;;;;;;;5005773;28;20367;-60
2023/01/17 07:29:29;;;;;;;16.33;11.63;;;;;;;;;;5013270;28;20217;-60
2023/01/17 07:31:56;;;;;;;10.73;7.90;;;;;;;;;;5012830;28;20208;-59
2023/01/17 07:34:24;;;;;;;8.10;6.67;;;;;;;;;;5013300;28;20213;-59
2023/01/17 07:36:53;;;;;;;8.07;6.33;;;;;;;;;;5013028;28;20220;-60
2023/01/17 07:39:20;;;;;;;7.73;6.33;;;;;;;;;;5012451;28;20312;-60
2023/01/17 07:41:47;;;;;;;7.00;5.70;;;;;;;;;;5012208;28;20208;-60
2023/01/17 07:44:15;;;;;;;9.03;6.27;;;;;;;;;;5012058;28;20233;-59
2023/01/17 07:46:42;;;;;;;8.33;5.80;;;;;;;;;;5012604;28;20209;-60
2023/01/17 07:49:09;;;;;;;7.17;5.60;;;;;;;;;;5009578;28;20197;-60
2023/01/17 07:51:37;;;;;;;7.60;5.53;;;;;;;;;;5008163;28;20201;-61
2023/01/17 07:54:04;;;;;;;7.00;5.77;;;;;;;;;;5012387;28;20209;-59
2023/01/17 07:56:33;;;;;;;9.87;6.27;;;;;;;;;;5012219;28;20234;-61
2023/01/17 07:59:01;;;;;;;7.40;5.70;;;;;;;;;;5012402;28;20224;-60
2023/01/17 08:01:28;;;;;;;10.73;6.27;;;;;;;;;;5010975;28;20209;-61
2023/01/17 08:03:55;;;;;;;7.97;6.03;;;;;;;;;;5012573;28;20212;-60
2023/01/17 08:06:24;;;;;;;9.90;5.90;;;;;;;;;;5012539;28;20224;-60
2023/01/17 08:08:53;;;;;;;8.27;6.30;;;;;;;;;;5012084;28;20287;-60
2023/01/17 08:11:21;;;;;;;9.00;6.50;;;;;;;;;;5012012;28;20262;-60
2023/01/17 08:13:48;;;;;;;7.63;5.50;;;;;;;;;;5012677;28;20209;-61
2023/01/17 08:16:16;;;;;;;8.40;5.50;;;;;;;;;;5011673;28;20287;-60
2023/01/17 08:18:43;;;;;;;7.70;5.23;;;;;;;;;;5011708;28;20232;-56
2023/01/17 08:21:14;;;;;;;7.80;6.17;;;;;;;;;;5011668;28;20208;-60
2023/01/17 08:23:41;;;;;;;8.20;5.60;;;;;;;;;;5007909;28;20197;-60
2023/01/17 08:26:11;;;;;;;8.50;5.70;;;;;;;;;;5010890;28;20197;-60
2023/01/17 08:28:38;;;;;;;6.87;5.70;;;;;;;;;;5003563;28;20563;-60
2023/01/17 08:31:18;;;;;;;7.13;5.83;;;;;;;;;;5010528;28;20213;-60
2023/01/17 08:33:45;;;;;;;9.83;7.27;;;;;;;;;;5002185;28;20215;-60
2023/01/17 08:36:13;;;;;;;12.07;9.63;;;;;;;;;;5006221;28;20201;-60
2023/01/17 08:38:40;;;;;;;12.23;10.90;;;;;;;;;;5009441;28;20231;-61
2023/01/17 08:41:07;;;;;;;17.67;15.83;;;;;;;;;;5002979;28;20211;-60
2023/01/17 08:43:36;;;;;;;20.90;17.40;;;;;;;;;;5008142;28;20198;-60
2023/01/17 08:46:05;;;;;;;16.13;14.13;;;;;;;;;;5012016;28;20216;-60
2023/01/17 08:48:32;;;;;;;15.30;11.17;;;;;;;;;;5008299;28;20204;-60
2023/01/17 08:51:00;;;;;;;13.77;10.97;;;;;;;;;;5011740;28;20212;-60
2023/01/17 08:53:29;;;;;;;15.17;10.17;;;;;;;;;;5012905;23;20230;-82
2023/01/17 08:55:59;;;;;;;15.17;11.03;;;;;;;;;;4992361;28;20338;-83
2023/01/17 08:58:27;;;;;;;15.97;10.87;;;;;;;;;;4991376;28;20221;-82
2023/01/17 09:00:56;;;;;;;13.40;10.97;;;;;;;;;;4992654;28;20229;-82
2023/01/17 09:03:23;;;;;;;15.70;11.60;;;;;;;;;;4994233;28;20297;-82
2023/01/17 09:05:50;;;;;;;17.60;10.97;;;;;;;;;;4994356;28;20209;-83
2023/01/17 09:08:17;;;;;;;15.53;11.47;;;;;;;;;;4989432;28;20203;-83
2023/01/17 09:10:45;;;;;;;15.33;11.43;;;;;;;;;;4987031;28;20280;-87
2023/01/17 09:13:12;;;;;;;19.67;12.50;;;;;;;;;;4981280;28;20205;-86
2023/01/17 09:15:39;;;;;;;19.43;13.20;;;;;;;;;;4988037;28;20214;-84
2023/01/17 09:18:08;;;;;;;42.77;16.10;;;;;;;;;;4992488;28;20205;-83
2023/01/17 09:20:35;;;;;;;23.67;13.53;;;;;;;;;;4995260;28;20232;-84
2023/01/17 09:23:03;;;;;;;17.90;11.80;;;;;;;;;;4990995;28;20202;-83
2023/01/17 10:17:27;;;;;;;12.17;9.97;;;;;;;;;;5129217;27;20331;-87
2023/01/17 10:20:01;;;;;;;12.17;10.03;;;;;;;;;;5098411;28;20251;-88
2023/01/17 10:22:37;;;;;;;10.67;7.37;;;;;;;;;;5099920;28;20197;-87
2023/01/17 10:25:33;;;;;;;8.47;6.70;;;;;;;;;;5096553;28;20288;-88
2023/01/17 10:28:03;;;;;;;7.77;5.77;;;;;;;;;;5102544;28;20461;-89
2023/01/17 10:30:34;;;;;;;7.07;5.63;;;;;;;;;;5100025;28;20281;-89
2023/01/17 10:33:04;;;;;;;6.30;5.33;;;;;;;;;;5109253;28;20216;-88
2023/01/17 10:35:34;;;;;;;8.17;6.30;;;;;;;;;;5099361;28;20299;-88
2023/01/17 10:38:04;;;;;;;15.07;11.43;;;;;;;;;;5099589;28;20293;-88
2023/01/17 10:40:37;;;;;;;13.07;10.70;;;;;;;;;;5104988;28;20321;-88
2023/01/17 10:43:07;;;;;;;14.50;9.70;;;;;;;;;;5103186;28;20202;-88
2023/01/17 10:45:37;;;;;;;9.97;8.00;;;;;;;;;;5104052;28;20296;-89
2023/01/17 10:48:11;;;;;;;11.63;7.83;;;;;;;;;;5097904;28;20285;-89
2023/01/17 10:50:44;;;;;;;13.80;8.97;;;;;;;;;;5098951;28;20288;-88
2023/01/17 10:53:17;;;;;;;15.30;12.50;;;;;;;;;;5099373;28;20206;-89
2023/01/17 10:55:47;;;;;;;17.40;12.73;;;;;;;;;;5102681;28;20304;-88
2023/01/17 10:58:14;;;;;;;12.33;11.03;;;;;;;;;;5107251;28;20194;-88
2023/01/17 11:00:44;;;;;;;11.57;10.20;;;;;;;;;;5100748;28;20286;-88
2023/01/17 11:03:14;;;;;;;8.70;7.07;;;;;;;;;;5109090;28;20202;-88
2023/01/17 11:05:42;;;;;;;7.03;6.27;;;;;;;;;;5112423;28;20266;-89
2023/01/17 11:08:10;;;;;;;8.03;6.63;;;;;;;;;;5110621;28;20221;-89
2023/01/17 11:10:39;;;;;;;7.53;5.60;;;;;;;;;;5098882;28;20202;-87
2023/01/17 11:13:08;;;;;;;11.43;5.83;;;;;;;;;;5098686;28;20206;-89
2023/01/17 11:15:38;;;;;;;7.17;5.70;;;;;;;;;;5109886;28;20321;-89
2023/01/17 11:18:07;;;;;;;7.37;5.90;;;;;;;;;;5094085;28;20206;-89
2023/01/17 11:20:36;;;;;;;7.43;5.00;;;;;;;;;;5094936;28;20212;-88
2023/01/17 11:23:06;;;;;;;6.13;4.73;;;;;;;;;;5087204;28;20202;-88
2023/01/17 11:25:34;;;;;;;5.20;4.20;;;;;;;;;;5083944;28;20218;-87
2023/01/17 11:28:03;;;;;;;8.60;5.33;;;;;;;;;;5093622;28;20229;-88
2023/01/17 11:30:30;;;;;;;6.43;4.57;;;;;;;;;;5081430;28;20200;-88
2023/01/17 11:32:58;;;;;;;5.87;4.57;;;;;;;;;;5099127;28;20201;-88
2023/01/17 11:35:26;;;;;;;5.43;4.03;;;;;;;;;;5092211;28;20226;-88
2023/01/17 11:37:58;;;;;;;6.27;4.60;;;;;;;;;;5094956;28;20265;-87
2023/01/17 11:40:26;;;;;;;5.57;4.67;;;;;;;;;;5090484;28;20205;-88
2023/01/17 11:43:00;;;;;;;9.13;5.90;;;;;;;;;;5080746;28;20210;-87
2023/01/17 11:45:29;;;;;;;8.37;5.97;;;;;;;;;;5095259;28;20289;-88
2023/01/17 11:48:10;;;;;;;8.93;5.77;;;;;;;;;;5100851;28;20208;-89
2023/01/17 11:50:38;;;;;;;6.67;4.60;;;;;;;;;;5093019;28;20197;-89
2023/01/17 11:53:08;;;;;;;5.07;3.53;;;;;;;;;;5087682;28;20202;-88
2023/01/17 11:55:35;;;;;;;5.13;3.73;;;;;;;;;;5090278;28;20218;-88
2023/01/17 11:58:02;;;;;;;7.60;4.07;;;;;;;;;;5089364;28;20216;-88
2023/01/17 12:00:33;;;;;;;3.70;2.90;;;;;;;;;;5084420;28;20198;-88
2023/01/17 12:03:10;;;;;;;3.20;2.90;;;;;;;;;;5089254;28;20198;-88
2023/01/17 12:05:52;;;;;;;4.63;3.20;;;;;;;;;;5088501;28;20206;-88
2023/01/17 12:08:27;;;;;;;4.63;4.10;;;;;;;;;;5084849;28;20213;-90
2023/01/17 12:10:57;;;;;;;4.70;4.07;;;;;;;;;;5089621;28;20262;-89
2023/01/17 12:16:31;;;;;;;3.70;3.40;;;;;;;;;;5094533;28;20237;-88
2023/01/17 12:19:06;;;;;;;3.70;2.97;;;;;;;;;;5086684;28;20205;-90
2023/01/17 12:21:40;;;;;;;3.87;3.00;;;;;;;;;;5084290;28;20201;-85
2023/01/17 12:24:23;;;;;;;3.03;2.50;;;;;;;;;;5080765;28;20290;-85
2023/01/17 12:26:53;;;;;;;4.67;2.90;;;;;;;;;;5094208;28;20220;-85
2023/01/17 12:29:42;;;;;;;4.43;2.70;;;;;;;;;;5084587;28;20194;-85
2023/01/17 12:32:21;;;;;;;8.73;6.67;;;;;;;;;;5082550;28;20206;-88
2023/01/17 12:34:51;;;;;;;8.43;5.93;;;;;;;;;;5080432;28;20203;-86
2023/01/17 12:37:20;;;;;;;5.57;3.93;;;;;;;;;;5088612;28;20222;-85
2023/01/17 12:39:52;;;;;;;3.20;2.80;;;;;;;;;;5093476;28;20198;-86
2023/01/17 12:42:23;;;;;;;3.27;2.77;;;;;;;;;;5089494;28;20202;-84
2023/01/17 12:44:54;;;;;;;5.40;3.57;;;;;;;;;;5091530;28;20198;-83
2023/01/17 12:47:21;;;;;;;3.97;3.23;;;;;;;;;;5091702;28;20212;-84
2023/01/17 12:49:51;;;;;;;3.50;3.00;;;;;;;;;;5093081;28;20208;-85
2023/01/17 12:52:22;;;;;;;4.70;3.50;;;;;;;;;;5090425;28;20202;-85
2023/01/17 12:54:52;;;;;;;3.37;3.07;;;;;;;;;;5090165;28;20208;-84
2023/01/17 12:57:22;;;;;;;5.77;3.50;;;;;;;;;;5091220;28;20233;-84
2023/01/17 12:59:53;;;;;;;8.97;3.90;;;;;;;;;;5083163;28;20200;-85
2023/01/17 13:02:23;;;;;;;4.03;3.57;;;;;;;;;;5082592;28;20202;-85
2023/01/17 13:04:54;;;;;;;5.20;3.20;;;;;;;;;;5093426;28;20200;-84
2023/01/17 13:07:26;;;;;;;6.50;4.00;;;;;;;;;;5084422;28;20205;-85
2023/01/17 13:09:58;;;;;;;5.10;4.27;;;;;;;;;;5085682;28;20210;-87
2023/01/17 13:12:27;;;;;;;5.87;4.80;;;;;;;;;;5090626;28;20269;-84
2023/01/17 13:14:54;;;;;;;7.83;5.80;;;;;;;;;;5086388;28;20241;-86
2023/01/17 13:17:27;;;;;;;8.90;5.60;;;;;;;;;;5092915;28;20234;-87
2023/01/17 13:19:56;;;;;;;9.80;5.57;;;;;;;;;;5091039;28;20210;-86
2023/01/17 13:22:25;;;;;;;8.17;4.73;;;;;;;;;;5091033;28;20205;-85
2023/01/17 13:24:59;;;;;;;6.43;3.40;;;;;;;;;;5088828;28;20202;-88
2023/01/17 13:27:59;;;;;;;3.23;2.93;;;;;;;;;;5087501;28;20210;-87
2023/01/17 13:30:42;;;;;;;3.30;3.00;;;;;;;;;;5011343;28;20207;-86
2023/01/17 13:33:21;;;;;;;3.17;2.87;;;;;;;;;;5001080;28;20220;-86
2023/01/17 13:35:53;;;;;;;7.03;2.70;;;;;;;;;;5057428;28;20209;-87
2023/01/17 13:38:35;;;;;;;6.30;3.87;;;;;;;;;;5086256;28;20228;-85
2023/01/17 13:41:09;;;;;;;3.93;3.00;;;;;;;;;;5073637;28;20202;-86
2023/01/17 13:43:38;;;;;;;3.17;2.77;;;;;;;;;;5087516;28;20262;-85
2023/01/17 13:46:05;;;;;;;5.63;4.40;;;;;;;;;;5081267;28;20213;-85
2023/01/17 13:48:36;;;;;;;3.33;2.50;;;;;;;;;;5082000;28;20218;-85
2023/01/17 13:51:04;;;;;;;4.47;4.07;;;;;;;;;;5093774;28;20259;-84
2023/01/17 13:53:56;;;;;;;8.87;7.87;;;;;;;;;;5090422;28;20309;-84
2023/01/17 13:56:41;;;;;;;7.07;5.10;;;;;;;;;;5084531;28;20225;-85
2023/01/17 13:59:29;;;;;;;5.20;4.70;;;;;;;;;;5090334;28;20214;-84
2023/01/17 14:01:57;;;;;;;6.53;5.77;;;;;;;;;;5089613;28;20210;-84
2023/01/17 14:04:25;;;;;;;5.80;3.80;;;;;;;;;;5083692;28;20213;-85
2023/01/17 14:06:54;;;;;;;3.63;3.30;;;;;;;;;;5087662;28;20212;-87
2023/01/17 14:09:26;;;;;;;11.00;7.63;;;;;;;;;;5093932;28;20198;-87
2023/01/17 14:11:55;;;;;;;9.27;6.83;;;;;;;;;;5084014;28;20227;-87
2023/01/17 14:14:41;;;;;;;42.47;31.57;;;;;;;;;;5080765;28;20202;-86
2023/01/17 14:17:24;;;;;;;15.13;11.37;;;;;;;;;;5094463;28;20241;-84
2023/01/17 14:19:53;;;;;;;9.93;8.80;;;;;;;;;;5089362;28;20281;-87
2023/01/17 14:22:23;;;;;;;10.83;8.80;;;;;;;;;;5087374;28;20202;-87
2023/01/17 14:24:59;;;;;;;7.17;6.03;;;;;;;;;;5090567;28;20202;-86
2023/01/17 14:27:27;;;;;;;10.13;6.87;;;;;;;;;;5085602;28;20243;-87
2023/01/17 14:29:57;;;;;;;11.03;8.57;;;;;;;;;;5092908;28;20217;-85
2023/01/17 14:32:26;;;;;;;5.97;4.87;;;;;;;;;;5089672;28;20252;-87
2023/01/17 14:34:56;;;;;;;6.40;4.90;;;;;;;;;;5089197;28;20207;-84
2023/01/17 14:37:38;;;;;;;8.30;6.00;;;;;;;;;;5089662;28;20252;-88
2023/01/17 14:40:14;;;;;;;13.47;6.07;;;;;;;;;;5098422;28;20277;-87
2023/01/17 14:42:43;;;;;;;15.17;6.40;;;;;;;;;;5086288;28;20211;-84
2023/01/17 14:45:14;;;;;;;20.23;7.93;;;;;;;;;;5103026;28;20212;-87
2023/01/17 14:47:44;;;;;;;19.60;7.50;;;;;;;;;;5104768;28;20209;-86
2023/01/17 14:50:24;;;;;;;16.63;6.83;;;;;;;;;;5091948;28;20202;-86
2023/01/17 14:53:07;;;;;;;10.60;5.17;;;;;;;;;;5086368;28;20212;-85
2023/01/17 14:55:35;;;;;;;6.67;4.33;;;;;;;;;;5088292;28;20203;-85
2023/01/17 14:58:02;;;;;;;6.97;4.73;;;;;;;;;;5099748;28;20284;-86
2023/01/17 15:00:29;;;;;;;6.17;4.40;;;;;;;;;;5087766;28;20203;-87
2023/01/17 15:02:58;;;;;;;4.60;3.40;;;;;;;;;;5086227;28;20258;-86
2023/01/17 15:05:27;;;;;;;3.67;3.27;;;;;;;;;;5098129;28;20206;-86
2023/01/17 15:07:55;;;;;;;4.90;3.40;;;;;;;;;;5089205;28;20292;-83
2023/01/17 15:10:25;;;;;;;3.50;3.20;;;;;;;;;;5089286;28;20210;-86
2023/01/17 15:12:52;;;;;;;4.53;4.00;;;;;;;;;;5090744;28;20205;-87
2023/01/17 15:15:27;;;;;;;6.70;5.43;;;;;;;;;;5089722;28;20251;-87
2023/01/17 15:18:08;;;;;;;5.97;3.70;;;;;;;;;;5084048;28;20233;-86
2023/01/17 15:20:37;;;;;;;2.73;2.00;;;;;;;;;;5084797;28;20281;-86
2023/01/17 15:23:05;;;;;;;3.57;2.27;;;;;;;;;;5095111;28;20206;-84
2023/01/17 15:25:32;;;;;;;2.77;1.80;;;;;;;;;;5090910;28;20255;-87
2023/01/17 15:28:03;;;;;;;2.13;1.70;;;;;;;;;;5093647;28;20298;-86
2023/01/17 15:30:32;;;;;;;3.10;1.80;;;;;;;;;;5091613;28;20225;-87
2023/01/17 15:33:00;;;;;;;2.90;1.60;;;;;;;;;;5091218;28;20224;-85
2023/01/17 15:35:27;;;;;;;1.70;1.60;;;;;;;;;;5097896;28;20281;-87
2023/01/17 15:37:57;;;;;;;1.53;1.43;;;;;;;;;;5092650;28;20218;-88
2023/01/17 15:40:24;;;;;;;1.50;1.40;;;;;;;;;;5088517;28;20231;-87
2023/01/17 15:42:55;;;;;;;1.90;1.80;;;;;;;;;;5095415;28;20209;-87
2023/01/17 15:45:25;;;;;;;2.97;2.30;;;;;;;;;;5094917;28;20206;-86
2023/01/17 15:47:52;;;;;;;4.17;2.50;;;;;;;;;;5091986;28;20214;-87
2023/01/17 15:50:30;;;;;;;2.80;2.00;;;;;;;;;;5092423;28;20202;-88
2023/01/17 15:53:00;;;;;;;2.80;1.87;;;;;;;;;;5091376;28;20206;-89
2023/01/17 15:55:31;;;;;;;1.97;1.70;;;;;;;;;;5094417;28;20288;-86
2023/01/17 15:57:58;;;;;;;2.47;1.70;;;;;;;;;;5089787;28;20230;-89
2023/01/17 16:00:31;;;;;;;2.93;1.80;;;;;;;;;;5086661;28;20199;-88
2023/01/17 16:02:58;;;;;;;2.80;1.60;;;;;;;;;;5092819;28;20213;-88
2023/01/17 16:05:37;;;;;;;2.43;1.63;;;;;;;;;;5087110;28;20257;-90
2023/01/17 16:08:31;;;;;;;3.87;1.90;;;;;;;;;;5097276;28;20240;-91
2023/01/17 16:11:01;;;;;;;3.00;2.13;;;;;;;;;;5041476;28;20220;-88
2023/01/17 16:13:29;;;;;;;2.30;2.00;;;;;;;;;;5099403;28;20194;-87
2023/01/17 16:16:09;;;;;;;2.27;2.07;;;;;;;;;;5093393;28;20230;-88
2023/01/17 16:18:37;;;;;;;2.27;1.90;;;;;;;;;;5087935;28;20218;-86
2023/01/17 16:21:09;;;;;;;2.23;2.03;;;;;;;;;;5088473;28;20198;-86
2023/01/17 16:23:36;;;;;;;2.33;2.13;;;;;;;;;;5089072;28;20200;-86
2023/01/17 16:26:05;;;;;;;5.97;2.60;;;;;;;;;;5091397;28;20206;-85
2023/01/17 16:28:33;;;;;;;3.77;2.60;;;;;;;;;;5081959;28;20360;-87
2023/01/17 16:31:00;;;;;;;2.67;2.47;;;;;;;;;;5088887;28;20266;-85
2023/01/17 16:33:27;;;;;;;3.13;2.70;;;;;;;;;;5086100;28;20203;-88
2023/01/17 16:35:54;;;;;;;3.30;2.77;;;;;;;;;;5087240;28;20203;-88
2023/01/17 16:38:22;;;;;;;3.40;2.73;;;;;;;;;;5092030;28;20221;-88
2023/01/17 16:40:49;;;;;;;4.37;3.17;;;;;;;;;;5084568;28;20210;-90
2023/01/17 16:43:18;;;;;;;3.37;2.37;;;;;;;;;;5092486;28;20197;-84
2023/01/17 16:45:47;;;;;;;2.73;2.23;;;;;;;;;;5088127;28;20222;-88
2023/01/17 16:48:14;;;;;;;2.00;1.90;;;;;;;;;;5085556;28;20210;-88
2023/01/17 16:50:46;;;;;;;2.10;1.80;;;;;;;;;;5088044;28;20274;-87
2023/01/17 16:53:14;;;;;;;3.83;2.00;;;;;;;;;;5086916;28;20228;-88
2023/01/17 16:55:45;;;;;;;1.57;1.40;;;;;;;;;;5078292;28;20199;-87
2023/01/17 16:58:15;;;;;;;2.53;1.70;;;;;;;;;;5088674;28;20309;-87
2023/01/17 17:00:44;;;;;;;2.80;1.83;;;;;;;;;;5137140;22;20281;-56
2023/01/17 17:03:15;;;;;;;4.33;2.40;;;;;;;;;;5036143;28;20299;-54
2023/01/17 17:05:44;;;;;;;4.63;3.10;;;;;;;;;;5038192;28;20295;-55
2023/01/17 17:08:11;;;;;;;5.33;4.37;;;;;;;;;;5038548;28;20188;-57
2023/01/17 17:10:38;;;;;;;5.97;4.90;;;;;;;;;;5032532;28;20207;-55
2023/01/17 17:13:05;;;;;;;6.70;5.77;;;;;;;;;;5040782;28;20207;-55